Time,TemperatureF,DewpointF,PressureIn,WindDirection,WindDirectionDegrees,WindSpeedMPH,WindSpeedGustMPH,Humidity,HourlyPrecipIn,Conditions,Clouds,dailyrainin,SolarRadiationWatts/m^2,SoftwareType,DateUTC
2013-05-20 00:00:00,41.0,27.0,-100.00,SSE,162,1.0,2.0,58,-99.99,,,-99.99,0.000000,,2013-05-20 06:00:00,
2013-05-20 00:52:00,41.0,27.0,-100.00,SSE,162,1.0,2.0,58,-99.99,,,-99.99,0.000000,,2013-05-20 06:52:00,
2013-05-20 01:00:00,41.0,27.0,-100.00,SE,139,1.0,2.0,58,-99.99,,,0.00,0.000000,,2013-05-20 07:00:00,
2013-05-20 01:52:00,41.0,-99.9,-100.00,North,-999,-999.0,-999.0,-999,-99.99,,,0.00,,,2013-05-20 07:52:00,
2013-05-20 02:00:00,41.0,-99.9,-100.00,North,-999,-999.0,-999.0,-999,-99.99,,,0.00,,,2013-05-20 08:00:00,
2013-05-20 02:52:00,41.0,-99.9,-100.00,North,-999,-999.0,-999.0,-999,-99.99,,,0.00,,,2013-05-20 08:52:00,
2013-05-20 03:00:00,38.0,25.0,-100.00,East,101,1.0,4.0,59,-99.99,,,0.00,0.000000,,2013-05-20 09:00:00,
2013-05-20 04:00:00,38.0,28.0,-100.00,SE,125,1.0,3.0,67,-99.99,,,0.00,0.000000,,2013-05-20 10:00:00,
2013-05-20 05:00:00,36.0,28.0,-100.00,SE,145,1.0,2.0,73,-99.99,,,0.00,0.000000,,2013-05-20 11:00:00,
2013-05-20 06:00:00,36.0,29.0,-100.00,SE,146,1.0,2.0,75,-99.99,,,0.00,0.600000,,2013-05-20 12:00:00,
2013-05-20 07:00:00,38.0,31.0,-100.00,SE,127,1.0,3.0,75,-99.99,,,0.00,34.200001,,2013-05-20 13:00:00,
2013-05-20 07:52:00,38.0,31.0,-100.00,SE,127,1.0,3.0,75,-99.99,,,0.00,34.200001,,2013-05-20 13:52:00,
2013-05-20 08:00:00,41.0,30.0,-100.00,NNE,12,2.0,7.0,65,-99.99,,,0.00,240.500000,,2013-05-20 14:00:00,
2013-05-20 09:00:00,42.0,32.0,-100.00,NNE,18,2.0,6.0,69,-99.99,,,0.00,157.500000,,2013-05-20 15:00:00,
2013-05-20 10:00:00,45.0,31.0,-100.00,North,10,2.0,7.0,58,-99.99,,,0.00,279.299988,,2013-05-20 16:00:00,
2013-05-20 11:00:00,47.0,30.0,-100.00,North,10,2.0,7.0,51,-99.99,,,0.00,353.500000,,2013-05-20 17:00:00,
2013-05-20 12:00:00,40.0,24.0,-100.00,North,6,2.0,5.0,54,-99.99,,,0.00,172.500000,,2013-05-20 18:00:00,
2013-05-20 13:00:00,48.0,37.0,-100.00,NNE,24,1.0,3.0,67,-99.99,,,0.00,540.000000,,2013-05-20 19:00:00,
2013-05-20 14:00:00,52.0,29.0,-100.00,North,350,2.0,8.0,41,-99.99,,,0.00,952.700012,,2013-05-20 20:00:00,
2013-05-20 14:42:00,52.0,29.0,-100.00,North,350,2.0,8.0,41,-99.99,,,0.00,952.700012,,2013-05-20 20:42:00,
2013-05-20 14:52:00,52.0,29.0,-100.00,North,350,2.0,8.0,41,-99.99,,,0.00,952.700012,,2013-05-20 20:52:00,
2013-05-20 15:00:00,51.0,21.0,-100.00,North,357,2.0,7.0,30,-99.99,,,0.00,967.000000,,2013-05-20 21:00:00,
2013-05-20 15:43:00,51.0,21.0,-100.00,North,357,2.0,7.0,30,-99.99,,,0.00,967.000000,,2013-05-20 21:43:00,
2013-05-20 15:53:00,51.0,21.0,-100.00,North,357,2.0,7.0,30,-99.99,,,0.00,967.000000,,2013-05-20 21:53:00,
2013-05-20 17:00:00,50.0,29.0,-100.00,East,82,1.0,7.0,44,-99.99,,,0.00,215.800003,,2013-05-20 23:00:00,
2013-05-20 18:00:00,38.0,26.0,-100.00,ESE,104,1.0,6.0,62,-99.99,,,0.00,41.500000,,2013-05-21 00:00:00,
2013-05-20 19:00:00,38.0,-99.9,-100.00,North,-999,-999.0,-999.0,-999,-99.99,,,0.00,,,2013-05-21 01:00:00,
2013-05-20 19:53:00,38.0,-99.9,-100.00,North,-999,-999.0,-999.0,-999,-99.99,,,0.00,,,2013-05-21 01:53:00,
2013-05-20 20:00:00,37.0,33.0,-100.00,South,171,1.0,6.0,84,-99.99,,,0.00,38.200001,,2013-05-21 02:00:00,
2013-05-20 21:00:00,35.0,32.0,-100.00,SSE,157,2.0,3.0,90,-99.99,,,0.00,0.300000,,2013-05-21 03:00:00,
2013-05-20 22:00:00,34.0,32.0,-100.00,SSE,157,2.0,3.0,91,-99.99,,,0.00,0.000000,,2013-05-21 04:00:00,
2013-05-20 22:53:00,34.0,32.0,-100.00,SSE,157,2.0,3.0,91,-99.99,,,0.00,0.000000,,2013-05-21 04:53:00,
2013-05-20 23:00:00,35.0,32.0,-100.00,SSE,157,2.0,3.0,89,-99.99,,,0.00,0.000000,,2013-05-21 05:00:00,
2013-05-20 23:52:00,35.0,32.0,-100.00,SSE,157,2.0,3.0,89,-99.99,,,0.00,0.000000,,2013-05-21 05:52:00,